Startpagina
METAR-TAF:

METAR-TAF

Vliegvelden :

RAF Fairford

Fairford, Engeland

breedte: 51-41N, lengte: 001-47W, hoogte: 87 m

Actueel weer

Dit bericht is 23 minuten geleden gemaakt, om 04:56 UTC
Wind 15 kt uit het westen
Temperatuur 7°C
Vochtigheid 76%
Druk 998 hPa
Zicht 10 km of meer
Onbewolkt

METAR: EGVA 060456Z AUTO 26015KT 9999 CLR 07/03 A2948 RMK AO2 SLP986 T00700025 $

Tijdstip: 06:19 (05:19 UTC)


TAF: ontbreekt

Waarnemingen en weersverwachtingen van meer dan 4000 vliegvelden (METAR en TAF).

De beschikbare stations zijn de gele en rode punten op de kaart.

Ga met uw muis naar het station om de naam te zien.

Klik dan om waarnemingen en weersverwachtingen te zien.

kaart wijzigen: klik op de groene knoppen met een zwart kruis om in te zoomen, op de groene knop met een streepje om uit te zoomen of op de groene pijlen voor aangrenzende kaarten.


METAR-TAF: